Time;durP1;ratioP1;P1;durP2;ratioP2;P2;SDS_P1;SDS_P2;PMS_P1;PMS_P2;Temp;Humidity;BMP_temperature;BMP_pressure;BME280_temperature;BME280_humidity;BME280_pressure;Samples;Min_cycle;Max_cycle;Signal;HPM_P1;HPM_P2
2023/03/21 00:00:15;;;;;;;2.70;1.90;;;;;;;;;;5013057;28;20182;-74
2023/03/21 00:03:19;;;;;;;2.43;2.00;;;;;;;;;;5001158;28;20181;-73
2023/03/21 00:06:25;;;;;;;2.10;1.90;;;;;;;;;;5016500;28;20213;-74
2023/03/21 00:09:29;;;;;;;4.43;2.00;;;;;;;;;;4993646;28;20185;-73
2023/03/21 00:12:36;;;;;;;1.80;1.60;;;;;;;;;;5016762;28;20201;-74
2023/03/21 00:15:53;;;;;;;3.23;2.10;;;;;;;;;;5017239;28;20181;-74
2023/03/21 00:18:57;;;;;;;2.70;1.87;;;;;;;;;;5004747;28;20225;-74
2023/03/21 00:22:01;;;;;;;2.10;1.90;;;;;;;;;;5004956;28;20627;-74
2023/03/21 00:25:07;;;;;;;2.80;1.73;;;;;;;;;;5016810;28;20194;-73
2023/03/21 00:28:11;;;;;;;3.33;1.83;;;;;;;;;;5016716;28;20217;-74
2023/03/21 00:31:15;;;;;;;2.83;2.07;;;;;;;;;;5004667;28;20186;-74
2023/03/21 00:34:19;;;;;;;4.07;2.20;;;;;;;;;;5004611;28;20189;-73
2023/03/21 00:37:24;;;;;;;2.93;2.10;;;;;;;;;;5004501;28;20221;-73
2023/03/21 00:40:28;;;;;;;2.00;1.60;;;;;;;;;;4993218;28;20185;-74
2023/03/21 00:43:32;;;;;;;2.67;1.70;;;;;;;;;;4992796;28;20201;-73
2023/03/21 00:46:38;;;;;;;2.53;2.00;;;;;;;;;;5003854;28;20225;-74
2023/03/21 00:49:43;;;;;;;4.60;2.03;;;;;;;;;;5004318;28;20182;-73
2023/03/21 00:52:48;;;;;;;2.13;1.90;;;;;;;;;;5003874;28;20201;-74
2023/03/21 00:55:52;;;;;;;2.37;1.93;;;;;;;;;;5003919;28;20208;-74
2023/03/21 00:58:56;;;;;;;3.27;2.03;;;;;;;;;;4992816;28;20705;-73
2023/03/21 01:02:00;;;;;;;2.40;1.73;;;;;;;;;;5004152;28;20190;-74
2023/03/21 01:05:04;;;;;;;3.70;2.10;;;;;;;;;;5003921;28;20193;-74
2023/03/21 01:08:11;;;;;;;5.63;2.10;;;;;;;;;;5003654;28;20709;-74
2023/03/21 01:11:18;;;;;;;2.20;2.00;;;;;;;;;;5003868;28;20189;-74
2023/03/21 01:14:23;;;;;;;2.53;1.63;;;;;;;;;;5004022;28;20181;-74
2023/03/21 01:17:27;;;;;;;2.27;1.90;;;;;;;;;;4992300;28;20217;-74
2023/03/21 01:20:31;;;;;;;2.20;1.83;;;;;;;;;;5003750;28;20185;-74
2023/03/21 01:23:35;;;;;;;2.00;1.80;;;;;;;;;;4981329;28;20201;-74
2023/03/21 01:26:39;;;;;;;2.73;2.00;;;;;;;;;;5003366;28;20233;-74
2023/03/21 01:29:43;;;;;;;1.67;1.50;;;;;;;;;;4992617;28;20186;-74
2023/03/21 01:32:47;;;;;;;3.13;2.10;;;;;;;;;;5003706;28;20626;-74
2023/03/21 01:35:51;;;;;;;3.07;2.00;;;;;;;;;;5003109;28;20186;-74
2023/03/21 01:38:55;;;;;;;2.00;1.80;;;;;;;;;;4992047;28;20213;-74
2023/03/21 01:42:00;;;;;;;5.97;2.67;;;;;;;;;;5003242;28;20182;-74
2023/03/21 01:45:44;;;;;;;3.40;1.83;;;;;;;;;;5003245;28;20189;-74
2023/03/21 01:49:00;;;;;;;2.87;2.33;;;;;;;;;;5003006;28;20214;-74
2023/03/21 01:52:09;;;;;;;2.37;2.10;;;;;;;;;;5003117;28;20185;-74
2023/03/21 01:55:15;;;;;;;2.77;1.97;;;;;;;;;;5003263;28;20185;-74
2023/03/21 01:58:34;;;;;;;3.87;2.30;;;;;;;;;;5002823;28;20221;-74
2023/03/21 02:01:48;;;;;;;2.13;1.60;;;;;;;;;;4992204;28;20543;-74
2023/03/21 02:04:57;;;;;;;3.43;2.27;;;;;;;;;;5002889;28;20181;-74
2023/03/21 02:08:03;;;;;;;1.80;1.67;;;;;;;;;;5002647;28;20241;-73
2023/03/21 02:11:11;;;;;;;2.33;1.90;;;;;;;;;;5002726;28;20561;-73
2023/03/21 02:14:20;;;;;;;2.57;2.07;;;;;;;;;;5002681;28;20182;-74
2023/03/21 02:17:46;;;;;;;2.10;1.90;;;;;;;;;;5002591;28;20221;-74
2023/03/21 02:21:22;;;;;;;2.00;1.80;;;;;;;;;;5002306;28;20187;-74
2023/03/21 02:24:37;;;;;;;3.27;2.10;;;;;;;;;;4983357;28;20205;-74
2023/03/21 02:27:51;;;;;;;4.47;2.07;;;;;;;;;;5001725;28;20237;-73
2023/03/21 02:31:04;;;;;;;2.50;2.27;;;;;;;;;;5014468;28;20186;-74
2023/03/21 02:34:41;;;;;;;2.40;2.13;;;;;;;;;;4980299;28;20185;-74
2023/03/21 02:37:56;;;;;;;2.50;2.00;;;;;;;;;;5001939;28;20214;-74
2023/03/21 02:41:16;;;;;;;3.07;2.07;;;;;;;;;;5002411;28;20562;-74
2023/03/21 02:44:52;;;;;;;2.50;2.20;;;;;;;;;;5002124;28;20626;-74
2023/03/21 02:48:08;;;;;;;3.10;2.20;;;;;;;;;;4990801;28;20237;-74
2023/03/21 02:51:16;;;;;;;3.73;2.20;;;;;;;;;;5001692;28;20201;-74
2023/03/21 02:54:22;;;;;;;2.40;2.20;;;;;;;;;;5002197;28;20185;-73
2023/03/21 02:57:27;;;;;;;7.30;2.50;;;;;;;;;;4990629;28;20225;-74
2023/03/21 03:00:34;;;;;;;2.10;1.90;;;;;;;;;;4990639;28;20201;-74
2023/03/21 03:03:40;;;;;;;3.63;2.40;;;;;;;;;;4991312;28;20178;-73
2023/03/21 03:07:08;;;;;;;3.10;2.23;;;;;;;;;;5001389;28;20182;-74
2023/03/21 03:10:24;;;;;;;3.53;2.27;;;;;;;;;;4968980;28;20201;-74
2023/03/21 03:13:40;;;;;;;4.00;2.27;;;;;;;;;;4979400;28;20182;-74
2023/03/21 03:16:58;;;;;;;2.50;2.30;;;;;;;;;;4979672;28;20185;-74
2023/03/21 03:20:13;;;;;;;3.50;2.37;;;;;;;;;;5001623;28;20190;-74
2023/03/21 03:24:00;;;;;;;4.17;2.57;;;;;;;;;;5001410;28;20539;-74
2023/03/21 03:27:06;;;;;;;3.50;2.47;;;;;;;;;;4904118;29;20241;-74
2023/03/21 03:30:14;;;;;;;2.70;2.40;;;;;;;;;;4918384;28;20634;-75
2023/03/21 03:33:22;;;;;;;2.90;2.60;;;;;;;;;;4990392;28;20185;-74
2023/03/21 03:36:34;;;;;;;2.93;2.23;;;;;;;;;;4990163;28;20186;-74
2023/03/21 03:39:52;;;;;;;5.20;2.67;;;;;;;;;;4991004;28;20205;-74
2023/03/21 03:43:09;;;;;;;4.00;2.40;;;;;;;;;;5005403;28;20189;-74
2023/03/21 03:46:22;;;;;;;2.73;2.33;;;;;;;;;;5005121;28;20194;-74
2023/03/21 03:49:34;;;;;;;3.83;2.83;;;;;;;;;;5005973;28;20178;-74
2023/03/21 03:52:49;;;;;;;3.93;2.93;;;;;;;;;;5005363;28;20189;-74
2023/03/21 03:55:56;;;;;;;3.87;2.77;;;;;;;;;;4994149;28;20205;-74
2023/03/21 03:59:03;;;;;;;3.50;2.40;;;;;;;;;;4993774;28;20209;-74
2023/03/21 04:02:24;;;;;;;2.83;2.53;;;;;;;;;;5005344;28;20186;-74
2023/03/21 04:05:28;;;;;;;3.70;2.70;;;;;;;;;;5004807;28;20185;-74
2023/03/21 04:08:32;;;;;;;2.77;2.57;;;;;;;;;;5016756;28;20225;-74
2023/03/21 04:11:36;;;;;;;3.17;2.57;;;;;;;;;;5004951;28;20281;-73
2023/03/21 04:14:41;;;;;;;3.80;2.73;;;;;;;;;;5004700;28;20186;-74
2023/03/21 04:17:45;;;;;;;4.27;3.20;;;;;;;;;;4993876;28;20217;-74
2023/03/21 04:20:50;;;;;;;2.63;2.43;;;;;;;;;;4993644;28;20198;-74
2023/03/21 04:23:54;;;;;;;3.30;3.00;;;;;;;;;;4993478;28;20630;-74
2023/03/21 04:26:59;;;;;;;6.23;2.97;;;;;;;;;;4993606;28;20225;-74
2023/03/21 04:30:15;;;;;;;5.67;3.27;;;;;;;;;;4994653;28;20193;-74
2023/03/21 04:33:27;;;;;;;6.40;3.63;;;;;;;;;;5004614;28;20202;-74
2023/03/21 04:36:41;;;;;;;4.57;3.00;;;;;;;;;;5004275;28;20190;-74
2023/03/21 04:39:46;;;;;;;6.67;2.90;;;;;;;;;;5004435;28;20186;-74
2023/03/21 04:42:50;;;;;;;4.57;3.17;;;;;;;;;;5016541;28;20181;-74
2023/03/21 04:45:54;;;;;;;3.33;2.67;;;;;;;;;;5004327;28;20550;-74
2023/03/21 04:48:59;;;;;;;3.20;2.67;;;;;;;;;;5003820;28;20229;-74
2023/03/21 04:52:03;;;;;;;3.60;2.70;;;;;;;;;;5003667;28;20209;-75
2023/03/21 04:55:08;;;;;;;4.83;2.70;;;;;;;;;;4993199;28;20586;-74
2023/03/21 04:58:13;;;;;;;3.57;2.50;;;;;;;;;;5004126;28;20221;-74
2023/03/21 05:01:19;;;;;;;4.93;2.50;;;;;;;;;;5016143;28;20190;-74
2023/03/21 05:04:25;;;;;;;2.53;2.33;;;;;;;;;;4992615;28;20570;-74
2023/03/21 05:07:30;;;;;;;5.03;2.40;;;;;;;;;;5003738;28;20225;-74
2023/03/21 05:10:34;;;;;;;4.83;2.77;;;;;;;;;;5004345;28;20185;-74
2023/03/21 05:13:39;;;;;;;7.23;2.40;;;;;;;;;;5003521;28;20209;-74
2023/03/21 05:16:47;;;;;;;3.50;2.33;;;;;;;;;;5003352;28;20201;-74
2023/03/21 05:19:55;;;;;;;4.17;2.13;;;;;;;;;;5003447;28;20186;-74
2023/03/21 05:22:59;;;;;;;5.70;2.30;;;;;;;;;;5028195;23;20244;-71
2023/03/21 05:26:05;;;;;;;3.77;2.40;;;;;;;;;;5012339;28;20670;-71
2023/03/21 05:29:22;;;;;;;3.90;2.20;;;;;;;;;;4994039;28;20209;-71
2023/03/21 05:32:35;;;;;;;4.07;2.40;;;;;;;;;;5014976;28;20190;-71
2023/03/21 05:35:39;;;;;;;2.47;2.20;;;;;;;;;;5015399;28;20189;-73
2023/03/21 05:38:46;;;;;;;3.50;2.53;;;;;;;;;;5003038;28;20217;-71
2023/03/21 05:41:50;;;;;;;3.40;2.30;;;;;;;;;;5003155;28;20189;-72
2023/03/21 05:44:54;;;;;;;3.97;2.40;;;;;;;;;;4992076;28;20189;-72
2023/03/21 05:48:06;;;;;;;4.63;2.70;;;;;;;;;;4992613;28;20225;-72
2023/03/21 05:51:18;;;;;;;3.20;2.47;;;;;;;;;;5014279;28;20182;-72
2023/03/21 05:54:23;;;;;;;4.37;2.23;;;;;;;;;;5003118;28;20186;-72
2023/03/21 05:57:27;;;;;;;7.00;2.50;;;;;;;;;;5014381;28;20221;-72
2023/03/21 06:00:37;;;;;;;3.27;2.77;;;;;;;;;;4993007;28;20182;-72
2023/03/21 06:04:04;;;;;;;3.23;2.30;;;;;;;;;;5014251;28;20186;-72
2023/03/21 06:07:08;;;;;;;3.57;2.60;;;;;;;;;;5002769;28;20221;-72
2023/03/21 06:10:16;;;;;;;4.97;3.10;;;;;;;;;;4980936;28;20193;-72
2023/03/21 06:13:23;;;;;;;6.13;2.70;;;;;;;;;;4991306;28;20567;-72
2023/03/21 06:16:28;;;;;;;6.17;2.90;;;;;;;;;;5002667;28;20186;-72
2023/03/21 06:19:32;;;;;;;2.87;2.60;;;;;;;;;;4991302;28;20177;-72
2023/03/21 06:22:51;;;;;;;4.33;2.50;;;;;;;;;;5004337;28;20209;-72
2023/03/21 06:25:55;;;;;;;4.47;2.70;;;;;;;;;;5002130;28;20190;-72
2023/03/21 06:29:01;;;;;;;3.53;2.30;;;;;;;;;;5013481;28;20673;-72
2023/03/21 06:32:06;;;;;;;3.53;2.93;;;;;;;;;;4990913;28;20190;-73
2023/03/21 06:35:10;;;;;;;7.17;3.00;;;;;;;;;;4990765;28;20670;-72
2023/03/21 06:38:15;;;;;;;11.47;3.20;;;;;;;;;;5013098;28;20225;-72
2023/03/21 06:41:19;;;;;;;6.83;3.10;;;;;;;;;;5014004;28;20185;-72
2023/03/21 06:44:34;;;;;;;7.97;3.20;;;;;;;;;;5013070;28;20202;-72
2023/03/21 06:47:43;;;;;;;3.20;2.50;;;;;;;;;;4980134;28;20217;-72
2023/03/21 06:50:56;;;;;;;4.60;2.67;;;;;;;;;;4990941;28;20185;-72
2023/03/21 06:54:02;;;;;;;3.57;2.70;;;;;;;;;;5002264;28;20186;-72
2023/03/21 06:57:16;;;;;;;15.13;3.03;;;;;;;;;;5001373;28;20225;-73
2023/03/21 07:00:22;;;;;;;8.43;3.47;;;;;;;;;;4990668;28;20185;-71
2023/03/21 07:03:30;;;;;;;5.40;2.97;;;;;;;;;;5001413;28;20224;-72
2023/03/21 07:06:37;;;;;;;9.60;3.77;;;;;;;;;;5001609;28;20182;-71
2023/03/21 07:09:41;;;;;;;5.00;3.37;;;;;;;;;;4990184;28;20209;-71
2023/03/21 07:12:45;;;;;;;5.53;3.00;;;;;;;;;;5013802;28;20185;-72
2023/03/21 07:15:57;;;;;;;8.53;3.10;;;;;;;;;;5001656;28;20527;-72
2023/03/21 07:19:03;;;;;;;6.27;3.43;;;;;;;;;;5001298;28;20221;-71
2023/03/21 07:22:07;;;;;;;5.80;3.13;;;;;;;;;;5001348;28;20662;-72
2023/03/21 07:25:11;;;;;;;7.27;4.07;;;;;;;;;;4990390;28;20210;-72
2023/03/21 07:28:18;;;;;;;6.00;3.73;;;;;;;;;;5001117;28;20221;-72
2023/03/21 07:31:24;;;;;;;5.30;3.37;;;;;;;;;;4990576;28;20634;-72
2023/03/21 07:34:31;;;;;;;5.73;4.00;;;;;;;;;;5013401;28;20182;-72
2023/03/21 07:37:36;;;;;;;6.33;3.70;;;;;;;;;;4990040;28;20221;-72
2023/03/21 07:40:40;;;;;;;5.43;4.07;;;;;;;;;;5001066;28;20186;-72
2023/03/21 07:43:44;;;;;;;6.77;4.30;;;;;;;;;;5001076;28;20197;-72
2023/03/21 07:46:48;;;;;;;7.97;4.30;;;;;;;;;;5001479;28;20205;-72
2023/03/21 07:49:53;;;;;;;7.57;4.93;;;;;;;;;;5013336;28;20217;-72
2023/03/21 07:52:57;;;;;;;8.30;4.60;;;;;;;;;;5000988;28;20205;-72
2023/03/21 07:56:01;;;;;;;7.30;4.50;;;;;;;;;;5001291;28;20177;-72
2023/03/21 07:59:06;;;;;;;9.17;5.00;;;;;;;;;;5013335;28;20186;-72
2023/03/21 08:02:15;;;;;;;5.93;3.97;;;;;;;;;;5000996;28;20189;-72
2023/03/21 08:05:20;;;;;;;16.40;5.03;;;;;;;;;;5001099;28;20193;-72
2023/03/21 08:08:25;;;;;;;6.03;3.87;;;;;;;;;;5000788;28;20229;-72
2023/03/21 08:11:30;;;;;;;4.60;4.10;;;;;;;;;;5001152;28;20178;-72
2023/03/21 08:14:35;;;;;;;5.23;4.07;;;;;;;;;;5012856;28;20201;-72
2023/03/21 08:17:40;;;;;;;7.33;4.33;;;;;;;;;;5012774;28;20229;-72
2023/03/21 08:20:43;;;;;;;6.03;4.23;;;;;;;;;;5012986;28;20181;-72
2023/03/21 08:23:48;;;;;;;6.93;4.20;;;;;;;;;;5002177;28;20221;-72
2023/03/21 08:26:52;;;;;;;6.30;4.27;;;;;;;;;;5015101;28;20186;-72
2023/03/21 08:30:00;;;;;;;5.27;4.57;;;;;;;;;;5016592;28;20225;-72
2023/03/21 08:33:04;;;;;;;6.33;4.17;;;;;;;;;;5016933;28;20181;-72
2023/03/21 08:36:09;;;;;;;5.47;4.30;;;;;;;;;;5016554;28;20201;-72
2023/03/21 08:39:13;;;;;;;6.53;4.30;;;;;;;;;;5016603;28;20630;-72
2023/03/21 08:42:18;;;;;;;12.33;4.57;;;;;;;;;;4993472;28;20181;-72
2023/03/21 08:45:23;;;;;;;10.07;4.50;;;;;;;;;;5004675;28;20182;-71
2023/03/21 08:48:27;;;;;;;7.27;4.53;;;;;;;;;;5015960;28;20225;-72
2023/03/21 08:51:32;;;;;;;7.17;4.57;;;;;;;;;;5016358;28;20185;-72
2023/03/21 08:54:37;;;;;;;4.40;3.80;;;;;;;;;;5004181;28;20523;-72
2023/03/21 08:57:41;;;;;;;8.00;4.27;;;;;;;;;;5015201;28;20221;-72
2023/03/21 09:00:45;;;;;;;7.17;4.10;;;;;;;;;;5016160;28;20193;-72
2023/03/21 09:03:49;;;;;;;6.87;4.00;;;;;;;;;;5004251;28;20519;-72
2023/03/21 09:06:55;;;;;;;8.17;4.10;;;;;;;;;;5003630;28;20189;-72
2023/03/21 09:09:59;;;;;;;7.33;3.53;;;;;;;;;;5015956;28;20674;-72
2023/03/21 09:13:03;;;;;;;10.57;3.83;;;;;;;;;;5004043;28;20182;-72
2023/03/21 09:16:07;;;;;;;5.60;3.67;;;;;;;;;;5016438;28;20534;-71
2023/03/21 09:19:12;;;;;;;5.47;3.30;;;;;;;;;;5016115;28;20193;-72
2023/03/21 09:22:22;;;;;;;4.77;3.13;;;;;;;;;;5015606;28;20209;-72
2023/03/21 09:25:29;;;;;;;5.43;3.10;;;;;;;;;;5003608;28;20186;-72
2023/03/21 09:28:36;;;;;;;4.13;2.97;;;;;;;;;;5015509;28;20222;-72
2023/03/21 09:31:42;;;;;;;4.93;3.37;;;;;;;;;;5015883;28;20519;-72
2023/03/21 09:34:47;;;;;;;5.50;2.57;;;;;;;;;;5015826;28;20622;-72
2023/03/21 09:37:52;;;;;;;2.80;2.50;;;;;;;;;;5001788;28;20677;-72
2023/03/21 09:41:11;;;;;;;4.83;2.80;;;;;;;;;;5014350;28;20185;-72
2023/03/21 09:44:37;;;;;;;5.33;2.93;;;;;;;;;;5015864;28;20194;-72
2023/03/21 09:47:51;;;;;;;3.70;2.63;;;;;;;;;;5015243;28;20221;-72
2023/03/21 09:50:57;;;;;;;2.53;1.90;;;;;;;;;;5002811;28;20221;-70
2023/03/21 09:54:07;;;;;;;9.73;2.60;;;;;;;;;;5003155;28;20181;-72
2023/03/21 09:57:40;;;;;;;3.63;2.27;;;;;;;;;;5014834;28;20217;-72
2023/03/21 10:00:49;;;;;;;4.50;2.67;;;;;;;;;;5015339;28;20182;-71
2023/03/21 10:03:55;;;;;;;3.80;3.07;;;;;;;;;;5002975;28;20181;-72
2023/03/21 10:07:01;;;;;;;4.53;3.20;;;;;;;;;;5014562;28;20575;-72
2023/03/21 10:10:06;;;;;;;3.17;2.60;;;;;;;;;;5015085;28;20213;-71
2023/03/21 10:13:24;;;;;;;4.77;2.83;;;;;;;;;;5002825;28;20536;-72
2023/03/21 10:16:31;;;;;;;4.03;2.70;;;;;;;;;;5014669;28;20190;-72
2023/03/21 10:19:35;;;;;;;5.20;2.83;;;;;;;;;;5014511;28;20178;-71
2023/03/21 10:22:39;;;;;;;3.63;3.00;;;;;;;;;;5002197;28;20559;-72
2023/03/21 10:25:50;;;;;;;5.10;3.20;;;;;;;;;;5014408;28;20205;-72
2023/03/21 10:28:57;;;;;;;3.93;2.83;;;;;;;;;;5014256;28;20221;-72
2023/03/21 10:32:02;;;;;;;5.30;3.03;;;;;;;;;;5002590;28;20178;-73
2023/03/21 10:35:08;;;;;;;4.10;3.20;;;;;;;;;;5013973;28;20185;-71
2023/03/21 10:38:16;;;;;;;3.90;3.30;;;;;;;;;;5014203;28;20217;-71
2023/03/21 10:41:21;;;;;;;5.10;3.10;;;;;;;;;;5013955;28;20524;-71
2023/03/21 10:44:31;;;;;;;5.57;3.30;;;;;;;;;;5002079;28;20185;-71
2023/03/21 10:47:35;;;;;;;4.00;3.10;;;;;;;;;;5001729;28;20699;-72
2023/03/21 10:50:41;;;;;;;4.90;3.00;;;;;;;;;;5013782;28;20678;-71
2023/03/21 10:53:51;;;;;;;6.83;2.97;;;;;;;;;;5001588;28;20188;-71
2023/03/21 10:57:06;;;;;;;13.57;3.40;;;;;;;;;;5014041;28;20183;-73
2023/03/21 11:00:20;;;;;;;4.00;2.90;;;;;;;;;;4990526;28;20177;-72
2023/03/21 11:03:30;;;;;;;4.20;3.10;;;;;;;;;;5014294;28;20194;-72
2023/03/21 11:06:37;;;;;;;2.93;2.50;;;;;;;;;;5013716;28;20197;-73
2023/03/21 11:09:48;;;;;;;4.87;2.63;;;;;;;;;;5013368;28;20232;-72
2023/03/21 11:12:56;;;;;;;3.77;2.50;;;;;;;;;;5013981;28;20292;-72
2023/03/21 11:16:08;;;;;;;7.20;2.53;;;;;;;;;;5013271;28;20197;-72
2023/03/21 11:19:18;;;;;;;3.60;2.30;;;;;;;;;;4979298;28;20190;-72
2023/03/21 11:22:25;;;;;;;3.53;2.23;;;;;;;;;;5013300;28;20555;-72
2023/03/21 11:25:39;;;;;;;2.90;2.17;;;;;;;;;;5013813;28;20185;-72
2023/03/21 11:28:45;;;;;;;2.83;2.53;;;;;;;;;;5045104;23;20232;-75
2023/03/21 11:31:49;;;;;;;4.37;2.43;;;;;;;;;;5033303;28;20181;-75
2023/03/21 11:35:00;;;;;;;2.57;2.20;;;;;;;;;;5033414;28;20665;-75
2023/03/21 11:38:22;;;;;;;2.93;2.47;;;;;;;;;;5024320;28;20216;-74
2023/03/21 11:41:32;;;;;;;5.27;2.10;;;;;;;;;;5032116;28;20193;-74
2023/03/21 11:44:42;;;;;;;5.53;2.10;;;;;;;;;;5033213;28;20530;-74
2023/03/21 11:47:49;;;;;;;3.53;2.70;;;;;;;;;;5033347;28;20217;-74
2023/03/21 11:51:09;;;;;;;6.17;2.43;;;;;;;;;;5032223;28;20209;-74
2023/03/21 11:54:30;;;;;;;4.93;2.60;;;;;;;;;;5032784;28;20189;-74
2023/03/21 11:57:58;;;;;;;2.80;2.23;;;;;;;;;;5032745;28;20225;-74
2023/03/21 12:01:08;;;;;;;7.07;2.03;;;;;;;;;;5033710;28;20189;-74
2023/03/21 12:04:34;;;;;;;5.60;2.80;;;;;;;;;;5036167;28;20197;-74
2023/03/21 12:07:51;;;;;;;3.13;2.23;;;;;;;;;;5035993;28;20230;-74
2023/03/21 12:11:18;;;;;;;4.87;2.77;;;;;;;;;;5036164;28;20226;-74
2023/03/21 12:14:29;;;;;;;4.33;2.50;;;;;;;;;;5036839;28;20627;-74
2023/03/21 12:18:11;;;;;;;4.27;2.53;;;;;;;;;;5047263;28;20221;-74
2023/03/21 12:21:53;;;;;;;2.20;2.00;;;;;;;;;;5035918;28;20181;-74
2023/03/21 12:25:05;;;;;;;4.00;2.90;;;;;;;;;;5019439;28;20205;-74
2023/03/21 12:28:58;;;;;;;6.07;2.77;;;;;;;;;;5036477;28;20227;-74
2023/03/21 12:32:16;;;;;;;3.40;2.57;;;;;;;;;;5029513;28;20202;-75
2023/03/21 12:35:44;;;;;;;2.97;2.40;;;;;;;;;;5035511;28;20183;-74
2023/03/21 12:39:07;;;;;;;2.37;1.87;;;;;;;;;;5036084;28;20222;-74
2023/03/21 12:42:20;;;;;;;3.43;2.40;;;;;;;;;;5035465;28;20187;-74
2023/03/21 12:45:30;;;;;;;7.43;2.77;;;;;;;;;;5035347;28;20546;-74
2023/03/21 12:48:44;;;;;;;3.07;2.50;;;;;;;;;;5034973;28;20218;-74
2023/03/21 12:51:54;;;;;;;5.33;2.47;;;;;;;;;;5035931;28;20214;-74
2023/03/21 12:55:06;;;;;;;3.33;2.40;;;;;;;;;;5035468;28;20199;-74
2023/03/21 12:58:18;;;;;;;4.37;2.67;;;;;;;;;;5046374;28;20229;-74
2023/03/21 13:01:23;;;;;;;3.23;2.50;;;;;;;;;;5035935;28;20190;-74
2023/03/21 13:04:46;;;;;;;2.47;2.23;;;;;;;;;;5035136;28;20186;-74
2023/03/21 13:07:56;;;;;;;2.97;2.67;;;;;;;;;;5035006;28;20225;-74
2023/03/21 13:11:02;;;;;;;7.67;2.03;;;;;;;;;;5046026;28;20221;-74
2023/03/21 13:14:15;;;;;;;2.77;2.37;;;;;;;;;;5034655;28;20197;-74
2023/03/21 13:17:29;;;;;;;3.23;2.83;;;;;;;;;;5034992;28;20226;-74
2023/03/21 13:20:50;;;;;;;2.90;1.97;;;;;;;;;;5034402;28;20191;-74
2023/03/21 13:24:16;;;;;;;3.00;2.67;;;;;;;;;;5035432;28;20639;-74
2023/03/21 13:27:28;;;;;;;2.90;2.37;;;;;;;;;;5035431;28;20238;-75
2023/03/21 13:30:32;;;;;;;3.93;3.20;;;;;;;;;;5034962;28;20220;-74
2023/03/21 13:33:43;;;;;;;6.57;2.40;;;;;;;;;;5035207;28;20182;-74
2023/03/21 13:36:49;;;;;;;13.50;3.40;;;;;;;;;;5045793;28;20668;-74
2023/03/21 13:40:00;;;;;;;3.93;2.60;;;;;;;;;;5035145;28;20181;-74
2023/03/21 13:43:38;;;;;;;4.57;3.30;;;;;;;;;;5034906;28;20195;-74
2023/03/21 13:46:55;;;;;;;3.80;3.10;;;;;;;;;;5034897;28;20191;-74
2023/03/21 13:50:17;;;;;;;4.20;2.90;;;;;;;;;;5035017;28;20202;-74
2023/03/21 13:53:23;;;;;;;3.70;2.77;;;;;;;;;;5045368;28;20191;-75
2023/03/21 13:56:29;;;;;;;3.20;2.70;;;;;;;;;;5045609;28;20182;-73
2023/03/21 13:59:36;;;;;;;3.10;2.80;;;;;;;;;;5034851;28;20191;-74
2023/03/21 14:02:53;;;;;;;4.33;2.40;;;;;;;;;;5034726;28;20201;-74
2023/03/21 14:05:57;;;;;;;5.97;2.40;;;;;;;;;;5033486;28;20193;-74
2023/03/21 14:09:02;;;;;;;3.97;2.77;;;;;;;;;;5045194;28;20229;-74
2023/03/21 14:12:15;;;;;;;4.30;2.30;;;;;;;;;;5034743;28;20229;-74
2023/03/21 14:15:35;;;;;;;3.53;2.97;;;;;;;;;;5034658;28;20205;-75
2023/03/21 14:18:43;;;;;;;7.83;2.90;;;;;;;;;;5033643;28;20228;-74
2023/03/21 14:21:52;;;;;;;3.97;2.90;;;;;;;;;;5034146;28;20186;-74
2023/03/21 14:24:59;;;;;;;5.93;3.07;;;;;;;;;;5033230;28;20185;-75
2023/03/21 14:28:07;;;;;;;11.30;3.10;;;;;;;;;;5034258;28;20233;-75
2023/03/21 14:31:15;;;;;;;13.10;3.73;;;;;;;;;;5034557;28;20214;-74
2023/03/21 14:34:21;;;;;;;4.27;2.60;;;;;;;;;;5045047;28;20183;-74
2023/03/21 14:37:27;;;;;;;4.20;3.10;;;;;;;;;;5033485;28;20685;-74
2023/03/21 14:40:32;;;;;;;4.10;2.80;;;;;;;;;;5033348;28;20181;-74
2023/03/21 14:43:36;;;;;;;4.27;3.10;;;;;;;;;;5044484;28;20201;-74
2023/03/21 14:46:41;;;;;;;2.97;1.97;;;;;;;;;;5033751;28;20629;-74
2023/03/21 14:49:47;;;;;;;7.03;3.03;;;;;;;;;;5033815;28;20185;-74
2023/03/21 14:52:52;;;;;;;3.23;2.57;;;;;;;;;;5033537;28;20181;-74
2023/03/21 14:56:08;;;;;;;3.30;2.57;;;;;;;;;;5044305;28;20196;-74
2023/03/21 14:59:16;;;;;;;4.57;3.37;;;;;;;;;;5021281;28;20189;-73
2023/03/21 15:02:26;;;;;;;6.40;2.80;;;;;;;;;;5033686;28;20181;-73
2023/03/21 15:05:35;;;;;;;3.00;2.70;;;;;;;;;;5033245;28;20185;-74
2023/03/21 15:08:56;;;;;;;4.00;2.90;;;;;;;;;;5032266;28;20220;-74
2023/03/21 15:12:06;;;;;;;5.13;3.23;;;;;;;;;;5033339;28;20553;-74
2023/03/21 15:15:13;;;;;;;12.03;3.00;;;;;;;;;;5033331;28;20181;-74
2023/03/21 15:18:25;;;;;;;4.80;3.20;;;;;;;;;;5044063;28;20574;-75
2023/03/21 15:21:37;;;;;;;6.23;3.20;;;;;;;;;;5033137;28;20185;-74
2023/03/21 15:24:45;;;;;;;4.20;3.53;;;;;;;;;;5032580;28;20184;-74
2023/03/21 15:27:49;;;;;;;3.47;3.00;;;;;;;;;;5033235;28;20228;-74
2023/03/21 15:30:55;;;;;;;3.93;3.00;;;;;;;;;;5021127;28;20221;-75
2023/03/21 15:33:59;;;;;;;4.60;2.77;;;;;;;;;;5021557;28;20181;-74
2023/03/21 15:37:05;;;;;;;4.40;3.27;;;;;;;;;;5020900;28;20212;-74
2023/03/21 15:40:20;;;;;;;3.37;2.90;;;;;;;;;;5033736;28;20180;-74
2023/03/21 15:43:24;;;;;;;4.27;3.17;;;;;;;;;;5033223;28;20185;-75
2023/03/21 15:46:42;;;;;;;3.30;2.87;;;;;;;;;;5032189;28;20205;-75
2023/03/21 15:49:54;;;;;;;4.60;3.03;;;;;;;;;;5032647;28;20669;-76
2023/03/21 15:53:01;;;;;;;4.73;2.93;;;;;;;;;;5043932;28;20181;-75
2023/03/21 15:56:15;;;;;;;3.90;2.87;;;;;;;;;;5043299;28;20208;-75
2023/03/21 15:59:22;;;;;;;4.13;2.70;;;;;;;;;;5043266;28;20192;-75
2023/03/21 16:02:29;;;;;;;10.30;4.00;;;;;;;;;;5033054;28;20181;-75
2023/03/21 16:05:33;;;;;;;4.63;3.10;;;;;;;;;;5015173;28;20578;-75
2023/03/21 16:08:49;;;;;;;4.73;3.10;;;;;;;;;;5005156;28;20221;-75
2023/03/21 16:11:56;;;;;;;5.10;2.93;;;;;;;;;;5013165;28;20210;-76
2023/03/21 16:15:00;;;;;;;5.77;3.30;;;;;;;;;;5013032;28;20185;-75
2023/03/21 16:18:05;;;;;;;4.90;2.80;;;;;;;;;;5011888;28;20562;-75
2023/03/21 16:21:14;;;;;;;4.97;3.20;;;;;;;;;;5012201;28;20182;-74
2023/03/21 16:24:19;;;;;;;4.17;3.03;;;;;;;;;;5023513;28;20194;-75
2023/03/21 16:27:23;;;;;;;3.83;3.00;;;;;;;;;;5016240;28;20228;-75
2023/03/21 16:30:27;;;;;;;3.37;2.80;;;;;;;;;;5017562;28;20188;-75
2023/03/21 16:33:32;;;;;;;2.77;2.40;;;;;;;;;;5020256;28;20185;-75
2023/03/21 16:36:38;;;;;;;3.67;3.03;;;;;;;;;;5032583;28;20185;-75
2023/03/21 16:39:42;;;;;;;5.33;3.37;;;;;;;;;;5020139;28;20185;-75
2023/03/21 16:42:46;;;;;;;4.63;2.80;;;;;;;;;;5020164;28;20172;-75
2023/03/21 16:45:50;;;;;;;6.33;2.90;;;;;;;;;;5020257;28;20196;-74
2023/03/21 16:48:56;;;;;;;8.63;2.83;;;;;;;;;;5036043;28;20649;-74
2023/03/21 16:52:01;;;;;;;13.07;3.60;;;;;;;;;;5012400;28;20228;-74
2023/03/21 16:55:07;;;;;;;11.27;3.23;;;;;;;;;;5026443;28;20202;-74
2023/03/21 16:58:14;;;;;;;16.93;8.27;;;;;;;;;;5027224;28;20220;-74
2023/03/21 17:01:20;;;;;;;13.87;6.13;;;;;;;;;;5036117;28;20173;-74
2023/03/21 17:04:24;;;;;;;10.00;4.63;;;;;;;;;;5023845;28;20181;-75
2023/03/21 17:07:28;;;;;;;24.33;4.43;;;;;;;;;;5023283;28;20212;-75
2023/03/21 17:10:32;;;;;;;27.03;4.03;;;;;;;;;;5035589;28;20181;-75
2023/03/21 17:13:36;;;;;;;13.60;3.33;;;;;;;;;;5035552;28;20288;-75
2023/03/21 17:16:41;;;;;;;11.47;3.10;;;;;;;;;;5023214;28;20189;-74
2023/03/21 17:19:46;;;;;;;7.53;2.40;;;;;;;;;;5035192;28;20197;-74
2023/03/21 17:22:50;;;;;;;17.13;2.83;;;;;;;;;;5023319;28;20181;-74
2023/03/21 17:25:55;;;;;;;5.83;2.23;;;;;;;;;;5023216;28;20189;-74
2023/03/21 17:28:59;;;;;;;6.03;2.67;;;;;;;;;;5035065;28;20224;-74
2023/03/21 17:32:03;;;;;;;4.67;2.47;;;;;;;;;;5011714;28;20213;-76
2023/03/21 17:35:09;;;;;;;4.23;1.80;;;;;;;;;;5023123;28;20181;-75
2023/03/21 17:38:16;;;;;;;5.57;2.60;;;;;;;;;;5034797;28;20224;-75
2023/03/21 17:41:21;;;;;;;3.30;1.60;;;;;;;;;;5035098;28;20185;-75
2023/03/21 17:44:25;;;;;;;2.43;1.73;;;;;;;;;;5034754;28;20653;-75
2023/03/21 17:47:31;;;;;;;3.03;2.20;;;;;;;;;;5022663;28;20220;-74
2023/03/21 17:50:36;;;;;;;3.97;1.83;;;;;;;;;;5034631;28;20181;-74
2023/03/21 17:53:44;;;;;;;2.27;1.73;;;;;;;;;;5034180;28;20181;-76
2023/03/21 17:56:48;;;;;;;2.33;1.63;;;;;;;;;;5034744;28;20178;-76
2023/03/21 17:59:52;;;;;;;2.40;1.70;;;;;;;;;;5033413;28;20200;-75
2023/03/21 18:02:57;;;;;;;5.73;1.70;;;;;;;;;;5022389;28;20673;-75
2023/03/21 18:06:02;;;;;;;2.97;1.70;;;;;;;;;;5022355;28;20185;-75
2023/03/21 18:09:09;;;;;;;4.40;1.97;;;;;;;;;;5033751;28;20189;-74
2023/03/21 18:12:13;;;;;;;2.57;1.60;;;;;;;;;;5034692;28;20217;-74
2023/03/21 18:15:19;;;;;;;5.27;2.03;;;;;;;;;;5020002;28;20662;-75
2023/03/21 18:18:25;;;;;;;2.20;1.60;;;;;;;;;;5029665;28;20224;-75
2023/03/21 18:21:30;;;;;;;2.60;1.67;;;;;;;;;;5014069;28;20182;-76
2023/03/21 18:24:34;;;;;;;2.10;1.80;;;;;;;;;;5014576;28;20190;-76
2023/03/21 18:27:39;;;;;;;2.00;1.63;;;;;;;;;;5002165;28;20228;-75
2023/03/21 18:30:44;;;;;;;2.33;1.77;;;;;;;;;;5011735;28;20217;-74
2023/03/21 18:33:49;;;;;;;4.13;1.90;;;;;;;;;;5013986;28;20205;-75
2023/03/21 18:36:53;;;;;;;2.33;1.77;;;;;;;;;;5014755;28;20212;-74
2023/03/21 18:39:58;;;;;;;3.33;1.87;;;;;;;;;;5022103;28;20181;-75
2023/03/21 18:43:02;;;;;;;2.93;2.30;;;;;;;;;;5021785;28;20177;-74
2023/03/21 18:46:07;;;;;;;3.93;2.40;;;;;;;;;;5033917;28;20185;-74
2023/03/21 18:49:15;;;;;;;2.87;2.20;;;;;;;;;;5033944;28;20180;-74
2023/03/21 18:52:19;;;;;;;4.70;2.30;;;;;;;;;;5026101;28;20220;-74